Time;durP1;ratioP1;P1;durP2;ratioP2;P2;SDS_P1;SDS_P2;PMS_P1;PMS_P2;Temp;Humidity;BMP_temperature;BMP_pressure;BME280_temperature;BME280_humidity;BME280_pressure;Samples;Min_cycle;Max_cycle;Signal;HPM_P1;HPM_P2
2022/07/28 00:00:27;;;;;;;6.85;2.65;;;9.10;99.90;;;;;;4998900;28;20045;-43
2022/07/28 00:02:53;;;;;;;5.63;2.80;;;9.00;99.90;;;;;;4999055;28;20052;-44
2022/07/28 00:05:21;;;;;;;5.45;2.50;;;9.00;99.90;;;;;;4995482;28;20045;-43
2022/07/28 00:07:48;;;;;;;4.95;2.35;;;9.90;99.90;;;;;;4996204;28;20050;-44
2022/07/28 00:10:14;;;;;;;5.82;2.78;;;9.80;99.90;;;;;;4994419;28;20065;-45
2022/07/28 00:12:40;;;;;;;6.15;2.45;;;8.70;99.90;;;;;;4993566;28;20853;-44
2022/07/28 00:15:06;;;;;;;4.30;2.40;;;9.60;99.90;;;;;;4994793;28;20050;-45
2022/07/28 00:17:32;;;;;;;6.95;2.60;;;8.70;99.90;;;;;;4993062;28;20030;-46
2022/07/28 00:19:57;;;;;;;5.07;2.58;;;9.60;99.90;;;;;;4996283;28;20038;-44
2022/07/28 00:22:23;;;;;;;6.57;2.35;;;8.70;99.90;;;;;;4993950;28;20070;-47
2022/07/28 00:24:49;;;;;;;4.03;2.15;;;8.50;99.90;;;;;;4995229;28;20034;-44
2022/07/28 00:27:16;;;;;;;5.30;2.40;;;8.70;99.90;;;;;;4994850;28;20120;-44
2022/07/28 00:29:42;;;;;;;7.72;2.40;;;8.60;99.90;;;;;;4978672;28;20477;-44
2022/07/28 00:32:07;;;;;;;6.10;2.38;;;8.50;99.90;;;;;;4998405;28;20441;-43
2022/07/28 00:34:33;;;;;;;4.75;2.50;;;8.60;99.90;;;;;;5002201;28;20056;-45
2022/07/28 00:36:59;;;;;;;6.07;2.25;;;8.80;99.90;;;;;;4998124;28;20042;-44
2022/07/28 00:39:24;;;;;;;3.88;2.10;;;8.80;99.90;;;;;;4993402;28;20042;-46
2022/07/28 00:41:50;;;;;;;5.28;2.90;;;9.60;99.90;;;;;;4995387;28;20046;-42
2022/07/28 00:44:16;;;;;;;5.28;2.90;;;8.60;99.90;;;;;;4995965;28;20840;-45
2022/07/28 00:46:42;;;;;;;4.43;2.28;;;8.60;99.90;;;;;;4993745;28;20453;-45
2022/07/28 00:49:08;;;;;;;4.70;2.67;;;8.40;99.90;;;;;;4999737;28;20486;-45
2022/07/28 00:51:34;;;;;;;3.95;2.35;;;8.60;99.90;;;;;;4997874;28;20075;-48
2022/07/28 00:54:02;;;;;;;4.47;2.58;;;9.70;99.90;;;;;;4979497;28;21148;-48
2022/07/28 00:56:27;;;;;;;6.53;2.88;;;8.90;99.90;;;;;;4997209;28;20057;-45
2022/07/28 00:58:53;;;;;;;5.40;2.60;;;8.40;99.90;;;;;;4997415;28;20450;-50
2022/07/28 01:01:21;;;;;;;5.32;2.88;;;8.50;99.90;;;;;;4994855;28;20529;-47
2022/07/28 01:03:56;;;;;;;5.03;2.80;;;9.50;99.90;;;;;;4978442;28;20052;-45
2022/07/28 01:06:50;;;;;;;3.90;2.50;;;9.20;99.90;;;;;;4975494;28;20314;-49
2022/07/28 01:09:55;;;;;;;5.05;2.70;;;8.40;99.90;;;;;;4995974;28;20052;-47
2022/07/28 01:12:44;;;;;;;5.05;2.50;;;8.50;99.90;;;;;;4917586;29;20867;-45
2022/07/28 01:15:27;;;;;;;6.63;2.22;;;7.90;99.90;;;;;;4914894;29;20043;-48
2022/07/28 01:18:16;;;;;;;6.90;2.78;;;8.50;99.90;;;;;;4917438;29;20208;-44
2022/07/28 01:20:48;;;;;;;6.53;2.47;;;8.40;99.90;;;;;;4918820;28;20050;-44
2022/07/28 01:23:49;;;;;;;5.40;2.40;;;8.40;99.90;;;;;;4918005;29;20055;-46
2022/07/28 01:26:23;;;;;;;4.57;2.65;;;8.50;99.90;;;;;;4902888;29;20168;-46
2022/07/28 01:29:00;;;;;;;4.55;2.85;;;8.40;99.90;;;;;;4918764;29;20145;-47
2022/07/28 01:31:32;;;;;;;6.53;2.45;;;8.50;99.90;;;;;;4917267;29;20114;-44
2022/07/28 01:34:03;;;;;;;6.25;2.70;;;8.60;99.90;;;;;;4914286;29;20087;-47
2022/07/28 01:36:32;;;;;;;4.15;2.47;;;10.10;99.90;;;;;;4917758;28;20091;-44
2022/07/28 01:38:59;;;;;;;6.75;2.72;;;8.40;99.90;;;;;;4915397;29;20565;-44
2022/07/28 01:41:29;;;;;;;6.07;2.25;;;8.40;99.90;;;;;;4915723;29;20226;-48
2022/07/28 01:44:00;;;;;;;4.30;2.70;;;8.90;99.90;;;;;;4918187;28;20055;-45
2022/07/28 01:46:27;;;;;;;5.22;2.55;;;8.50;99.90;;;;;;4913651;28;20083;-45
2022/07/28 01:48:55;;;;;;;6.35;2.70;;;8.20;99.90;;;;;;4952629;28;20160;-48
2022/07/28 01:51:25;;;;;;;9.80;3.22;;;9.80;99.90;;;;;;4976511;28;20041;-49
2022/07/28 01:53:54;;;;;;;5.32;2.65;;;8.50;99.90;;;;;;4974500;28;20613;-48
2022/07/28 01:56:21;;;;;;;4.45;2.60;;;8.50;99.90;;;;;;4976723;28;20119;-47
2022/07/28 01:58:50;;;;;;;5.68;2.38;;;9.50;99.90;;;;;;4974682;28;20042;-46
2022/07/28 02:01:18;;;;;;;4.63;2.17;;;9.40;99.90;;;;;;4976594;28;20058;-44
2022/07/28 02:03:45;;;;;;;5.78;2.40;;;8.40;99.90;;;;;;4975916;28;20510;-46
2022/07/28 02:06:12;;;;;;;5.75;2.67;;;9.00;99.90;;;;;;4975387;28;20042;-47
2022/07/28 02:08:40;;;;;;;4.40;2.45;;;9.50;99.90;;;;;;4978948;28;20051;-44
2022/07/28 02:13:52;;;;;;;4.50;2.40;;;8.60;99.90;;;;;;4977443;28;20676;-47
2022/07/28 02:16:23;;;;;;;3.60;2.28;;;8.30;99.90;;;;;;4978675;28;20039;-49
2022/07/28 02:18:50;;;;;;;5.57;2.63;;;8.70;99.90;;;;;;4980799;28;20042;-45
2022/07/28 02:21:17;;;;;;;4.40;2.47;;;8.50;99.90;;;;;;4977162;28;20124;-46
2022/07/28 02:23:46;;;;;;;6.50;2.60;;;8.40;99.90;;;;;;4979475;28;20044;-47
2022/07/28 02:26:13;;;;;;;5.57;2.55;;;8.40;99.90;;;;;;4978188;28;20042;-46
2022/07/28 02:28:42;;;;;;;5.78;2.63;;;8.60;99.90;;;;;;4959927;28;20083;-45
2022/07/28 02:31:28;;;;;;;5.78;2.67;;;8.50;99.90;;;;;;4980479;28;20131;-48
2022/07/28 02:33:58;;;;;;;5.07;2.88;;;8.40;99.90;;;;;;4982542;28;20049;-46
2022/07/28 02:36:33;;;;;;;8.25;2.97;;;8.60;99.90;;;;;;4996091;28;20049;-44
2022/07/28 02:39:06;;;;;;;4.78;2.95;;;8.40;99.90;;;;;;4999303;28;20048;-48
2022/07/28 02:41:41;;;;;;;6.50;3.22;;;8.40;99.90;;;;;;5002701;28;20042;-45
2022/07/28 02:44:16;;;;;;;5.47;3.17;;;8.40;99.90;;;;;;4995747;28;20053;-46
2022/07/28 02:46:52;;;;;;;8.75;3.22;;;8.50;99.90;;;;;;4996209;28;20177;-43
2022/07/28 02:49:27;;;;;;;4.80;2.72;;;9.70;99.90;;;;;;4978551;28;20034;-45
2022/07/28 02:51:55;;;;;;;6.03;3.10;;;8.30;99.90;;;;;;4996845;28;20529;-43
2022/07/28 02:54:22;;;;;;;5.93;3.55;;;8.40;99.90;;;;;;4996757;28;20042;-43
2022/07/28 02:56:49;;;;;;;6.18;2.97;;;8.30;99.90;;;;;;5001958;28;20049;-42
2022/07/28 02:59:17;;;;;;;5.85;2.90;;;8.50;99.90;;;;;;4997839;28;20277;-45
2022/07/28 03:01:43;;;;;;;5.65;2.85;;;8.60;99.90;;;;;;4996682;28;20510;-43
2022/07/28 03:04:12;;;;;;;5.60;2.75;;;8.60;99.90;;;;;;4997202;28;20046;-43
2022/07/28 03:06:38;;;;;;;6.47;2.90;;;10.10;99.90;;;;;;4995619;28;20057;-43
2022/07/28 03:09:06;;;;;;;6.30;3.40;;;7.70;99.90;;;;;;4999542;28;20061;-46
2022/07/28 03:11:32;;;;;;;6.50;3.35;;;8.50;99.90;;;;;;4997210;28;20072;-45
2022/07/28 03:13:58;;;;;;;6.45;3.00;;;8.70;99.90;;;;;;4983955;28;20144;-44
2022/07/28 03:16:24;;;;;;;7.63;3.33;;;8.70;99.90;;;;;;4995537;28;20050;-45
2022/07/28 03:18:50;;;;;;;4.88;3.10;;;8.70;99.90;;;;;;4997006;28;20042;-44
2022/07/28 03:21:16;;;;;;;6.30;3.33;;;8.80;99.90;;;;;;4998050;28;20482;-47
2022/07/28 03:23:46;;;;;;;6.30;3.60;;;8.90;99.90;;;;;;4996775;28;20042;-47
2022/07/28 03:26:22;;;;;;;5.82;3.80;;;9.10;99.90;;;;;;4997831;28;20041;-45
2022/07/28 03:28:51;;;;;;;8.75;4.30;;;8.90;99.90;;;;;;5000739;28;20716;-45
2022/07/28 03:31:20;;;;;;;7.65;4.78;;;10.20;99.90;;;;;;4998928;28;20481;-45
2022/07/28 03:33:46;;;;;;;9.50;4.10;;;10.50;99.90;;;;;;4996184;28;20060;-47
2022/07/28 03:36:17;;;;;;;6.50;3.72;;;9.30;99.90;;;;;;4993538;28;20037;-42
2022/07/28 03:38:49;;;;;;;8.27;3.60;;;9.10;99.90;;;;;;4996515;28;20627;-43
2022/07/28 03:41:17;;;;;;;7.68;3.67;;;9.30;99.90;;;;;;4994473;28;20046;-42
2022/07/28 03:43:43;;;;;;;6.00;3.63;;;9.30;99.90;;;;;;4994055;28;20065;-43
2022/07/28 03:46:09;;;;;;;6.60;3.42;;;9.20;99.90;;;;;;4993601;28;20100;-42
2022/07/28 03:48:35;;;;;;;6.53;3.47;;;9.40;99.90;;;;;;4996688;28;20491;-44
2022/07/28 03:51:04;;;;;;;8.60;3.28;;;9.30;99.90;;;;;;4997312;28;20069;-43
2022/07/28 03:53:30;;;;;;;5.78;3.10;;;9.50;99.90;;;;;;4994877;28;20052;-44
2022/07/28 03:55:55;;;;;;;4.80;3.17;;;10.70;99.90;;;;;;4999915;28;20053;-45
2022/07/28 03:58:26;;;;;;;8.40;3.28;;;11.00;99.90;;;;;;4995426;28;20034;-43
2022/07/28 04:00:52;;;;;;;4.97;3.17;;;9.40;99.90;;;;;;4997905;28;20494;-46
2022/07/28 04:03:18;;;;;;;9.68;3.20;;;9.40;99.90;;;;;;4995961;28;20029;-44
2022/07/28 04:05:46;;;;;;;6.85;3.78;;;10.30;99.90;;;;;;4994378;28;20042;-43
2022/07/28 04:08:12;;;;;;;6.55;3.22;;;9.60;99.90;;;;;;4995214;28;20537;-45
2022/07/28 04:10:38;;;;;;;7.70;3.60;;;9.30;99.90;;;;;;4994407;28;20144;-43
2022/07/28 04:13:06;;;;;;;7.35;3.40;;;10.30;99.90;;;;;;4996238;28;20069;-43
2022/07/28 04:15:34;;;;;;;5.25;3.50;;;9.20;99.90;;;;;;4994926;28;20061;-42
2022/07/28 04:18:00;;;;;;;5.43;3.40;;;9.30;99.90;;;;;;4997811;28;20061;-47
2022/07/28 04:20:26;;;;;;;6.57;3.60;;;10.40;99.90;;;;;;4977706;28;20175;-42
2022/07/28 04:22:54;;;;;;;6.20;3.63;;;9.70;99.90;;;;;;4998781;28;20045;-42
2022/07/28 04:25:23;;;;;;;5.60;3.78;;;9.40;99.90;;;;;;4999924;28;20541;-41
2022/07/28 04:27:50;;;;;;;8.98;4.22;;;9.10;99.90;;;;;;5000664;28;20045;-43
2022/07/28 04:30:17;;;;;;;5.75;3.42;;;9.20;99.90;;;;;;5000437;28;20133;-41
2022/07/28 04:32:47;;;;;;;7.22;3.65;;;9.10;99.90;;;;;;4995582;28;20057;-42
2022/07/28 04:35:14;;;;;;;5.65;3.50;;;10.50;99.90;;;;;;4992171;28;20049;-42
2022/07/28 04:37:42;;;;;;;6.30;3.58;;;9.50;99.90;;;;;;4994735;28;20034;-41
2022/07/28 04:40:11;;;;;;;6.35;3.70;;;9.30;99.90;;;;;;4994421;28;20049;-43
2022/07/28 04:42:38;;;;;;;9.07;3.70;;;9.20;99.90;;;;;;4997173;28;20526;-41
2022/07/28 04:45:06;;;;;;;6.15;3.95;;;9.40;99.90;;;;;;4994807;28;20052;-47
2022/07/28 04:47:33;;;;;;;8.55;4.60;;;9.30;99.90;;;;;;4995346;28;20581;-43
2022/07/28 04:49:58;;;;;;;12.07;4.38;;;9.50;99.90;;;;;;4998668;28;20057;-41
2022/07/28 04:52:25;;;;;;;7.35;4.25;;;9.40;99.90;;;;;;5000194;28;20034;-42
2022/07/28 04:54:51;;;;;;;9.70;3.97;;;11.20;99.90;;;;;;4984061;28;20053;-42
2022/07/28 04:57:17;;;;;;;6.63;4.20;;;9.70;99.90;;;;;;5000769;28;20060;-42
2022/07/28 04:59:44;;;;;;;9.27;4.65;;;11.00;99.90;;;;;;4999073;28;20045;-42
2022/07/28 05:02:11;;;;;;;7.32;4.38;;;9.90;99.90;;;;;;4998233;28;20046;-41
2022/07/28 05:04:37;;;;;;;6.75;3.97;;;9.80;99.90;;;;;;4995360;28;20559;-42
2022/07/28 05:07:03;;;;;;;10.13;4.03;;;9.80;99.90;;;;;;4993751;28;20285;-41
2022/07/28 05:09:28;;;;;;;7.13;3.83;;;10.50;99.90;;;;;;4993498;28;20053;-41
2022/07/28 05:11:54;;;;;;;6.47;4.00;;;9.90;99.90;;;;;;4993774;28;20036;-40
2022/07/28 05:14:21;;;;;;;5.70;3.80;;;12.00;99.90;;;;;;4993017;28;20044;-45
2022/07/28 05:16:49;;;;;;;7.38;3.40;;;10.20;99.90;;;;;;4994925;28;20092;-41
2022/07/28 05:19:15;;;;;;;9.77;4.03;;;12.20;99.90;;;;;;4995411;28;20413;-47
2022/07/28 05:21:41;;;;;;;8.82;4.38;;;11.40;99.90;;;;;;4993020;28;20045;-41
2022/07/28 05:24:09;;;;;;;7.90;4.05;;;10.40;99.90;;;;;;4995727;28;20054;-41
2022/07/28 05:26:35;;;;;;;20.58;3.97;;;10.40;99.90;;;;;;4993887;28;20450;-41
2022/07/28 05:29:00;;;;;;;6.10;4.13;;;10.60;99.90;;;;;;4994621;28;20049;-41
2022/07/28 05:31:26;;;;;;;9.80;4.35;;;10.70;99.90;;;;;;4993474;28;20041;-40
2022/07/28 05:33:52;;;;;;;7.40;3.88;;;12.60;99.90;;;;;;4993190;28;20046;-41
2022/07/28 05:36:17;;;;;;;9.27;3.80;;;12.10;99.90;;;;;;4995682;28;20086;-41
2022/07/28 05:38:43;;;;;;;7.28;3.92;;;11.90;99.90;;;;;;4992912;28;20088;-42
2022/07/28 05:41:09;;;;;;;6.47;3.85;;;11.30;99.90;;;;;;4993039;28;20037;-41
2022/07/28 05:43:36;;;;;;;6.60;4.05;;;11.70;99.90;;;;;;4994008;28;20730;-40
2022/07/28 05:46:04;;;;;;;6.65;4.22;;;12.30;99.90;;;;;;4993450;28;20058;-42
2022/07/28 05:48:30;;;;;;;9.48;3.80;;;12.00;99.90;;;;;;4992923;28;20039;-42
2022/07/28 05:50:56;;;;;;;6.03;3.78;;;12.20;99.90;;;;;;4995031;28;20041;-41
2022/07/28 05:53:24;;;;;;;6.18;3.72;;;12.30;99.90;;;;;;4993381;28;20545;-41
2022/07/28 05:55:50;;;;;;;10.85;4.13;;;13.20;99.90;;;;;;4997482;28;20037;-41
2022/07/28 05:58:20;;;;;;;5.95;3.35;;;12.60;99.90;;;;;;4992995;28;20042;-42
2022/07/28 06:00:47;;;;;;;5.50;3.53;;;12.90;99.90;;;;;;4994050;28;20042;-41
2022/07/28 06:03:13;;;;;;;8.98;3.65;;;14.20;99.90;;;;;;4994694;28;20041;-42
2022/07/28 06:05:38;;;;;;;7.47;3.13;;;14.10;99.90;;;;;;4993864;28;20046;-42
2022/07/28 06:08:06;;;;;;;6.57;2.55;;;14.80;99.90;;;;;;4975246;28;20049;-41
2022/07/28 06:13:16;;;;;;;7.60;2.17;;;14.20;99.90;;;;;;4995087;28;20045;-42
2022/07/28 06:15:45;;;;;;;6.72;2.53;;;14.50;97.60;;;;;;4996024;28;20785;-43
2022/07/28 06:18:12;;;;;;;6.40;1.73;;;14.70;99.90;;;;;;4993108;28;20057;-41
2022/07/28 06:20:37;;;;;;;7.30;2.03;;;14.80;99.90;;;;;;4993347;28;20548;-43
2022/07/28 06:23:04;;;;;;;5.70;2.20;;;15.30;99.90;;;;;;4993007;28;20049;-41
2022/07/28 06:25:30;;;;;;;6.20;1.70;;;15.50;99.60;;;;;;4994848;28;20040;-41
2022/07/28 06:27:58;;;;;;;4.53;1.42;;;15.70;95.80;;;;;;4975561;28;20077;-41
2022/07/28 06:30:25;;;;;;;8.20;2.08;;;15.80;93.50;;;;;;4996353;28;20042;-43
2022/07/28 06:32:51;;;;;;;7.60;1.58;;;15.70;91.40;;;;;;4993471;28;20042;-42
2022/07/28 06:35:17;;;;;;;6.72;1.52;;;15.60;90.80;;;;;;4990868;28;20046;-42
2022/07/28 06:37:46;;;;;;;6.20;1.50;;;15.50;90.00;;;;;;4994161;28;20129;-42
2022/07/28 06:40:14;;;;;;;5.82;1.40;;;15.40;90.90;;;;;;4991947;28;20048;-42
2022/07/28 06:42:40;;;;;;;7.95;1.20;;;15.50;92.80;;;;;;4992410;28;20248;-43
2022/07/28 06:45:07;;;;;;;4.85;1.50;;;15.50;92.90;;;;;;4974414;28;20058;-41
2022/07/28 06:47:33;;;;;;;6.35;1.77;;;15.60;93.60;;;;;;4992201;28;20124;-41
2022/07/28 06:50:01;;;;;;;8.75;1.83;;;15.50;93.40;;;;;;4992744;28;20117;-43
2022/07/28 06:52:26;;;;;;;4.80;1.40;;;14.80;92.00;;;;;;4995152;28;20775;-41
2022/07/28 06:54:52;;;;;;;5.13;1.58;;;17.90;93.50;;;;;;4981410;28;20125;-43
2022/07/28 06:57:19;;;;;;;7.65;1.40;;;16.70;90.70;;;;;;4998372;28;20576;-44
2022/07/28 06:59:46;;;;;;;8.00;1.52;;;16.00;90.70;;;;;;4996131;28;20085;-45
2022/07/28 07:02:12;;;;;;;4.90;1.58;;;16.20;90.00;;;;;;4995703;28;21483;-43
2022/07/28 07:04:38;;;;;;;5.78;1.20;;;16.90;88.30;;;;;;4998882;28;20125;-43
2022/07/28 07:07:05;;;;;;;5.47;1.20;;;15.80;79.10;;;;;;4996307;28;20092;-43
2022/07/28 07:09:30;;;;;;;3.63;1.05;;;16.10;79.20;;;;;;4995575;28;20591;-43
2022/07/28 07:11:56;;;;;;;6.80;1.55;;;16.30;79.70;;;;;;4996445;28;20057;-42
2022/07/28 07:14:22;;;;;;;3.97;1.40;;;16.10;79.40;;;;;;4997116;28;20049;-42
2022/07/28 07:16:48;;;;;;;12.55;2.08;;;15.90;76.20;;;;;;4996370;28;20041;-44
2022/07/28 07:19:17;;;;;;;6.55;1.60;;;17.30;77.90;;;;;;4997393;28;20529;-45
2022/07/28 07:21:43;;;;;;;4.80;1.50;;;15.90;77.20;;;;;;4995311;28;20076;-43
2022/07/28 07:24:11;;;;;;;7.72;1.38;;;17.10;78.20;;;;;;4996062;28;20133;-44
2022/07/28 07:26:38;;;;;;;6.97;1.10;;;16.80;72.20;;;;;;4995957;28;20033;-44
2022/07/28 07:29:05;;;;;;;5.38;1.50;;;16.20;70.20;;;;;;4994502;28;20631;-44
2022/07/28 07:31:35;;;;;;;4.60;1.40;;;16.30;58.30;;;;;;4994779;28;20108;-44
2022/07/28 07:34:02;;;;;;;9.65;1.63;;;15.70;65.70;;;;;;4995653;28;20057;-44
2022/07/28 07:36:28;;;;;;;4.18;1.20;;;15.80;63.70;;;;;;4997346;28;20482;-43
2022/07/28 07:38:54;;;;;;;6.45;2.05;;;15.70;66.70;;;;;;4996634;28;20096;-48
2022/07/28 07:41:19;;;;;;;8.05;1.50;;;15.90;63.80;;;;;;4996278;28;20068;-47
2022/07/28 07:43:46;;;;;;;7.28;1.08;;;15.80;55.70;;;;;;4995608;28;20117;-43
2022/07/28 07:46:12;;;;;;;8.73;1.42;;;17.30;58.00;;;;;;4994838;28;20034;-42
2022/07/28 07:48:41;;;;;;;3.65;1.10;;;16.60;70.20;;;;;;4996380;28;20573;-44
2022/07/28 07:51:07;;;;;;;6.90;1.85;;;15.60;72.50;;;;;;4995481;28;20054;-45
2022/07/28 07:53:33;;;;;;;6.43;1.10;;;15.60;73.20;;;;;;4979040;28;20196;-48
2022/07/28 07:56:02;;;;;;;3.08;0.90;;;18.00;70.00;;;;;;4994790;28;20133;-44
2022/07/28 07:58:28;;;;;;;4.97;1.08;;;16.00;65.00;;;;;;4997397;28;20515;-43
2022/07/28 08:00:53;;;;;;;4.95;1.15;;;15.60;59.40;;;;;;4996009;28;20053;-44
2022/07/28 08:03:19;;;;;;;7.05;1.10;;;15.70;62.40;;;;;;4996482;28;20072;-48
2022/07/28 08:05:45;;;;;;;5.47;0.90;;;15.60;58.60;;;;;;4994429;28;20123;-45
2022/07/28 08:08:11;;;;;;;3.15;0.98;;;16.20;57.20;;;;;;4995105;28;20038;-45
2022/07/28 08:10:38;;;;;;;4.85;0.88;;;16.00;58.00;;;;;;4995457;28;20510;-44
2022/07/28 08:13:05;;;;;;;4.60;0.80;;;15.40;57.40;;;;;;4997416;28;20522;-47
2022/07/28 08:15:32;;;;;;;9.00;1.42;;;15.80;47.10;;;;;;4995995;28;20267;-43
2022/07/28 08:17:58;;;;;;;2.67;0.63;;;16.00;36.40;;;;;;4996482;28;20049;-47
2022/07/28 08:20:24;;;;;;;5.20;0.90;;;15.60;36.60;;;;;;4995460;28;20418;-48
2022/07/28 08:22:52;;;;;;;3.35;0.70;;;15.80;40.20;;;;;;4994637;28;20038;-47
2022/07/28 08:25:20;;;;;;;6.63;0.98;;;17.50;43.10;;;;;;4995253;28;20042;-44
2022/07/28 08:27:46;;;;;;;4.03;0.75;;;15.70;37.20;;;;;;4995180;28;20506;-45
2022/07/28 08:30:13;;;;;;;3.92;0.77;;;15.70;39.10;;;;;;4995930;28;20041;-44
2022/07/28 08:32:41;;;;;;;5.07;1.33;;;16.00;40.00;;;;;;4995647;28;20622;-44
2022/07/28 08:35:07;;;;;;;6.85;1.67;;;17.50;33.80;;;;;;4995680;28;20054;-49
2022/07/28 08:37:33;;;;;;;3.50;1.02;;;16.00;32.70;;;;;;4994324;28;20043;-49
2022/07/28 08:39:59;;;;;;;3.88;0.75;;;16.00;33.60;;;;;;4994970;28;20056;-46
2022/07/28 08:42:34;;;;;;;2.78;0.90;;;16.10;30.00;;;;;;4979023;28;20439;-44
2022/07/28 08:45:20;;;;;;;3.63;0.82;;;16.20;29.10;;;;;;4994023;28;20053;-43
2022/07/28 08:47:49;;;;;;;3.42;0.73;;;16.40;29.00;;;;;;4974404;28;20386;-44
2022/07/28 08:50:14;;;;;;;2.45;1.20;;;17.20;22.00;;;;;;4971976;28;20050;-48
2022/07/28 08:52:44;;;;;;;5.90;1.00;;;16.80;5.70;;;;;;4974080;28;20659;-47
2022/07/28 08:55:12;;;;;;;3.90;1.02;;;17.40;6.40;;;;;;4972812;28;20137;-48
2022/07/28 08:57:41;;;;;;;4.95;1.25;;;17.00;7.40;;;;;;4972707;28;20092;-45
2022/07/28 09:00:09;;;;;;;6.05;0.95;;;17.90;4.90;;;;;;4972756;28;20101;-46
2022/07/28 09:02:41;;;;;;;3.03;0.93;;;17.10;1.00;;;;;;4975150;28;20477;-45
2022/07/28 09:05:06;;;;;;;;;;;17.10;1.00;;;;;;4974362;28;20151;-47
2022/07/28 09:07:36;;;;;;;4.15;0.90;;;17.30;1.00;;;;;;4973784;28;20425;-50
2022/07/28 09:10:06;;;;;;;3.78;1.52;;;17.50;1.00;;;;;;4973250;28;20217;-45
2022/07/28 09:12:33;;;;;;;5.40;1.35;;;17.40;1.00;;;;;;4970830;28;20177;-46
2022/07/28 09:15:04;;;;;;;5.05;1.40;;;17.70;1.00;;;;;;4973955;28;20054;-44
2022/07/28 09:17:31;;;;;;;4.10;0.95;;;17.00;1.00;;;;;;4971800;28;20039;-49
2022/07/28 09:19:57;;;;;;;4.78;1.20;;;17.90;1.00;;;;;;4972060;28;20038;-50
2022/07/28 09:22:23;;;;;;;5.20;1.10;;;18.70;1.00;;;;;;4971089;28;20053;-44
2022/07/28 09:24:49;;;;;;;6.72;1.20;;;18.50;1.00;;;;;;4981351;28;20081;-46
2022/07/28 09:27:15;;;;;;;4.85;1.42;;;18.70;1.00;;;;;;4995085;28;20132;-46
2022/07/28 09:29:45;;;;;;;4.20;1.00;;;18.90;99.90;;;;;;4992749;28;20384;-45
2022/07/28 09:32:15;;;;;;;4.45;0.80;;;18.80;99.90;;;;;;4992847;28;20045;-45
2022/07/28 09:34:49;;;;;;;3.88;0.70;;;19.10;99.90;;;;;;4992277;28;20057;-48
2022/07/28 09:37:24;;;;;;;5.68;0.82;;;18.70;99.90;;;;;;4993270;28;20095;-44
2022/07/28 09:39:53;;;;;;;5.35;1.02;;;19.60;99.90;;;;;;4993855;28;20053;-48
2022/07/28 09:42:20;;;;;;;4.45;0.82;;;18.70;99.90;;;;;;4992335;28;20439;-46
2022/07/28 09:45:07;;;;;;;3.80;0.90;;;18.60;99.90;;;;;;4993063;28;20049;-44
2022/07/28 09:47:33;;;;;;;2.88;0.85;;;20.50;99.90;;;;;;4993807;28;20046;-49
2022/07/28 09:50:00;;;;;;;3.60;1.30;;;20.00;99.90;;;;;;4993821;28;20147;-49
2022/07/28 09:52:44;;;;;;;3.05;0.80;;;21.00;99.90;;;;;;4993614;28;20053;-46
2022/07/28 09:55:11;;;;;;;5.05;0.82;;;19.10;25.90;;;;;;4993416;28;20067;-50
2022/07/28 09:57:38;;;;;;;4.22;0.63;;;18.90;1.00;;;;;;4995152;28;20522;-45
2022/07/28 10:00:08;;;;;;;4.40;1.48;;;18.90;1.00;;;;;;4996006;28;20502;-49
2022/07/28 10:02:35;;;;;;;3.10;0.80;;;18.80;93.20;;;;;;4994323;28;20073;-50
2022/07/28 10:05:00;;;;;;;6.03;0.95;;;19.40;99.90;;;;;;4992218;28;20042;-47
2022/07/28 10:07:29;;;;;;;2.78;0.70;;;19.80;1.00;;;;;;4993495;28;20049;-48
2022/07/28 10:10:01;;;;;;;2.65;1.02;;;22.00;99.90;;;;;;4996104;28;20034;-49
2022/07/28 10:12:29;;;;;;;4.03;0.90;;;19.70;99.90;;;;;;4992184;28;20053;-45
2022/07/28 10:16:09;;;;;;;5.85;0.90;;;19.50;1.00;;;;;;4993514;28;20052;-49
2022/07/28 10:17:46;;;;;;;2.37;0.70;;;20.00;99.90;;;;;;4993985;28;20391;-46
2022/07/28 10:20:15;;;;;;;4.15;0.90;;;20.50;1.00;;;;;;4993427;28;20387;-45
2022/07/28 10:22:42;;;;;;;5.25;0.90;;;19.80;99.90;;;;;;4992479;28;20398;-46
2022/07/28 10:25:11;;;;;;;3.85;0.90;;;20.10;99.90;;;;;;4992883;28;20050;-47
2022/07/28 10:27:39;;;;;;;3.35;0.90;;;19.50;17.70;;;;;;4977907;28;20133;-46
2022/07/28 10:30:05;;;;;;;2.20;0.70;;;19.70;1.00;;;;;;4996194;28;20705;-45
2022/07/28 10:32:44;;;;;;;6.85;1.02;;;19.50;99.90;;;;;;4997464;28;20132;-46
2022/07/28 10:35:12;;;;;;;3.95;0.80;;;19.50;99.90;;;;;;4995873;28;20883;-48
2022/07/28 10:37:57;;;;;;;4.38;0.90;;;19.20;99.90;;;;;;4981202;28;20046;-44
2022/07/28 10:40:34;;;;;;;5.43;0.80;;;18.70;99.90;;;;;;4997025;28;20068;-47
2022/07/28 10:42:59;;;;;;;4.47;1.13;;;18.60;99.90;;;;;;4996882;28;20690;-46
2022/07/28 10:45:26;;;;;;;2.55;0.70;;;18.50;99.90;;;;;;4996360;28;20121;-48
2022/07/28 10:47:53;;;;;;;4.30;1.00;;;18.30;99.90;;;;;;4996701;28;20050;-46
2022/07/28 10:50:21;;;;;;;4.18;0.90;;;19.30;1.30;;;;;;4996431;28;20145;-44
2022/07/28 10:52:48;;;;;;;6.70;1.05;;;18.20;1.00;;;;;;4997252;28;20290;-47
2022/07/28 10:55:32;;;;;;;5.80;1.05;;;18.00;99.90;;;;;;4998167;28;21179;-46
2022/07/28 10:58:03;;;;;;;2.97;0.90;;;17.80;99.90;;;;;;4979904;28;20053;-44
2022/07/28 11:00:32;;;;;;;3.28;0.90;;;17.60;1.00;;;;;;4978361;28;20065;-44
2022/07/28 11:03:00;;;;;;;4.47;1.10;;;17.50;99.90;;;;;;4995920;28;20046;-46
2022/07/28 11:05:41;;;;;;;4.93;0.75;;;17.50;99.90;;;;;;4995527;28;20041;-45
2022/07/28 11:08:15;;;;;;;5.53;1.00;;;17.40;14.40;;;;;;4996499;28;20046;-45
2022/07/28 11:10:42;;;;;;;2.90;0.77;;;17.20;99.90;;;;;;4979841;28;20073;-45
2022/07/28 11:13:29;;;;;;;3.47;0.80;;;17.40;99.90;;;;;;4998289;28;20583;-44
2022/07/28 11:15:56;;;;;;;5.93;0.90;;;17.50;92.30;;;;;;4997302;28;20130;-44
2022/07/28 11:18:22;;;;;;;1.48;0.70;;;17.60;42.20;;;;;;4995868;28;20089;-45
2022/07/28 11:21:11;;;;;;;2.38;0.75;;;17.50;94.40;;;;;;4977593;28;20090;-46
2022/07/28 11:23:40;;;;;;;6.63;0.82;;;17.80;99.90;;;;;;4936183;28;20047;-44
2022/07/28 11:26:22;;;;;;;2.92;0.90;;;18.10;1.00;;;;;;4937896;28;20055;-44
2022/07/28 11:28:56;;;;;;;5.40;0.93;;;18.70;90.20;;;;;;4937139;28;20082;-44
2022/07/28 11:32:03;;;;;;;2.58;0.77;;;18.60;1.00;;;;;;4935732;28;20409;-44
2022/07/28 11:35:06;;;;;;;5.20;0.90;;;18.90;99.90;;;;;;4898941;29;20152;-49
2022/07/28 11:38:00;;;;;;;1.70;0.57;;;18.90;99.90;;;;;;4897091;29;20048;-45
2022/07/28 11:40:33;;;;;;;3.72;0.90;;;19.20;43.40;;;;;;4901477;29;20246;-45
2022/07/28 11:43:20;;;;;;;4.43;0.80;;;19.10;1.00;;;;;;4897185;29;20052;-47
2022/07/28 11:45:51;;;;;;;2.33;1.00;;;18.60;99.90;;;;;;4896640;29;20060;-44
2022/07/28 11:48:20;;;;;;;2.60;1.00;;;18.90;58.90;;;;;;4898031;29;20127;-45
2022/07/28 11:51:15;;;;;;;7.18;0.80;;;18.60;99.90;;;;;;4897749;29;20059;-46
2022/07/28 11:53:54;;;;;;;3.30;0.70;;;19.90;99.90;;;;;;4873665;29;20064;-46
2022/07/28 11:56:28;;;;;;;5.55;1.23;;;18.70;99.90;;;;;;4874812;29;20049;-45
2022/07/28 11:59:01;;;;;;;2.63;0.82;;;18.90;1.00;;;;;;4876921;29;20067;-44
2022/07/28 12:01:27;;;;;;;3.95;0.90;;;18.90;99.90;;;;;;4904996;29;20438;-47
2022/07/28 12:03:55;;;;;;;5.18;0.82;;;19.40;99.90;;;;;;4911126;29;20537;-44
2022/07/28 12:06:22;;;;;;;2.33;0.90;;;19.70;96.10;;;;;;4910776;29;20093;-45
2022/07/28 12:09:05;;;;;;;3.40;0.70;;;18.80;12.70;;;;;;4911377;29;20043;-45
2022/07/28 12:11:39;;;;;;;4.13;0.82;;;18.80;99.90;;;;;;4928005;28;20062;-45
2022/07/28 12:14:13;;;;;;;3.15;0.80;;;18.70;99.90;;;;;;4946790;28;20047;-46
2022/07/28 12:16:41;;;;;;;3.35;0.70;;;19.70;1.00;;;;;;4943193;28;20058;-44
2022/07/28 12:19:08;;;;;;;3.80;0.82;;;20.00;99.90;;;;;;4949572;28;20539;-44
2022/07/28 12:21:37;;;;;;;3.58;0.77;;;18.50;99.90;;;;;;4940808;28;20109;-45
2022/07/28 12:24:04;;;;;;;3.15;0.90;;;18.50;1.00;;;;;;4940812;28;20528;-45
2022/07/28 12:26:35;;;;;;;4.13;1.27;;;18.40;99.90;;;;;;4941067;28;20050;-45
2022/07/28 12:29:02;;;;;;;3.97;0.80;;;18.30;99.90;;;;;;4944143;28;20038;-44
2022/07/28 12:31:29;;;;;;;3.10;0.88;;;18.20;1.00;;;;;;4995469;28;20125;-44
2022/07/28 12:33:58;;;;;;;2.25;0.80;;;18.20;1.00;;;;;;4996166;28;20304;-44
2022/07/28 12:36:25;;;;;;;4.75;0.90;;;19.40;99.90;;;;;;4994569;28;20042;-45
2022/07/28 12:38:52;;;;;;;4.82;1.00;;;19.80;99.90;;;;;;4995215;28;20056;-45
2022/07/28 12:41:20;;;;;;;2.30;0.77;;;18.60;99.90;;;;;;4995643;28;20526;-44
2022/07/28 12:43:53;;;;;;;4.53;1.00;;;18.90;99.90;;;;;;4995124;28;20050;-45
2022/07/28 12:46:26;;;;;;;2.30;0.80;;;19.30;99.90;;;;;;4994126;28;20548;-44
2022/07/28 12:48:54;;;;;;;2.03;0.65;;;19.40;99.90;;;;;;5000548;28;20042;-45
2022/07/28 12:51:37;;;;;;;4.40;0.90;;;19.30;99.90;;;;;;4991760;28;20545;-45
2022/07/28 12:54:09;;;;;;;3.85;0.68;;;19.40;99.90;;;;;;4993889;28;20384;-46
2022/07/28 12:56:50;;;;;;;2.92;0.85;;;19.30;99.90;;;;;;4993996;28;20045;-44
2022/07/28 12:59:18;;;;;;;4.40;0.90;;;21.70;99.90;;;;;;4994699;28;20088;-44
2022/07/28 13:01:55;;;;;;;4.82;1.23;;;19.50;99.90;;;;;;4993954;28;20057;-44
2022/07/28 13:04:47;;;;;;;3.60;0.90;;;19.60;99.90;;;;;;4993481;28;20048;-45
2022/07/28 13:07:23;;;;;;;3.58;0.85;;;19.50;98.40;;;;;;4975564;28;20061;-44